Portada
METAR-TAF:

METAR-TAF

Aeroports :

Mendoza, Argentina

latitud: 32-50S, longitud: 068-47W, altitud: 705 m

Observació

L'informe es va fer fa 57 minuts, a les 06:00 UTC
Vent 3 kt del Sud-Oest
Temperatura 16°C
Humitat 51%
Pressió 1013 hPa
Visibilitat 10 km o més
sense núvols per sota de 1500 mi sense presència de cumulonimbus.

METAR: SAME 200600Z 23003KT CAVOK 16/06 Q1013

Hora: 03:57 (06:57 UTC)

Pronòstic

L'informe es va fer fa 1 hora i 57 minuts, a les 05:00 UTC
Pronòstic vàlid del 20 a les 06 UTC al 21 a les 06 UTC
Vent 3 kt amb direcció variable
Visibilitat 10 km o més
sense núvols per sota de 1500 mi sense presència de cumulonimbus.

TAF: SAME 200500Z 2006/2106 20005KT CAVOK TX31/2020Z TN12/2010ZBECMG 2014/2016 VRB03KT

Observacions i pronòstics meteorològics de més de 4000 aeroports (METAR i TAF).

Les estacions disponibles són els punts grocs i vermells al mapa.

Posi el ratolí al punt desitjat per veure el nom de l'estació.

Feu clic per veure les observacions i els pronòstics meteorològics.

Per canviar el mapa: feu clic els botons verds amb una creu de color negre per apropar; al botó verd amb un guió per allunyar la imatge; o en les fletxes verdes per a mapes adjacents.


METAR-TAF: